Historyczne dane pomiarowe

Dodano dane terminowe – wersja testowa.

Dane z okresu 1951-2019

Wersja bazy: 1.34 [2019-03-16, lista zmian], aktualizacja planowana na 2019-04-15

Dane meteo z obszaru Polski uzyskane na podstawie danych udostępnionych przez Instytut Meteorologii i Gospodarki Wodnej – Państwowy Instytut Badawczy.

 

Wybierz Datę:    

       

TemperaturaWilgotnośćWiatrCiśnienieOpadyŚniegCzas trwania zjawisk
 Stacja t tx tn tng RH VA  wxwx mslp ppp RRR   cm mm wxwxwxwxwxwxwx
1994-08-14 13.2 17.1 10.4 9.5 79.8- 6.3 6.0---- 4.3------------
1994-08-13 15.8 19.4 12.9 13.1 87.8- 6.7 4.0---- 4.1------------
1994-08-12 18.8 20.5 14.8 14.7 87.5- 7.3 2.0---- 3.7------------
1994-08-11 21.6 26.8 17.6 17.2 61.8- 7.0 4.0---- 4.8------------
1994-08-10 21.1 27.4 13.6 4.8 63.3- 4.3 2.3---- 0.0------------
1994-08-09 21.3 26.2 11.2 7.3 64.8- 4.0 2.7---- 0.0------------
1994-08-08 20.0 26.8 9.7 5.2 66.3- 2.3 1.7---- 0.0------------
1994-08-07 19.7 25.5 12.0 7.4 69.8- 3.3 2.3---- 0.0------------
1994-08-06 23.6 30.4 17.3 13.1 63.5- 3.7 2.7---- 0.0------------
1994-08-05 26.3 33.1 17.6 8.1 53.3- 2.0 3.7---- 0.0------------
1994-08-04 20.8 29.1 7.1 3.2 68.8- 2.7 1.7---- 0.0------------
1994-08-03 23.1 28.0 13.6 9.2 59.0- 2.7 3.0---- 0.0------------
1994-08-02 26.0 34.0 19.9 17.7 63.5- 4.7 3.7---- 0.0------------
1994-08-01 31.0 37.5 19.4 16.9 42.3- 3.3 3.7---- 0.0------------
1994-07-31 29.6 37.9 21.0 19.8 48.8- 3.3 3.7---- 0.0------------
1994-07-30 24.5 35.0 17.1 13.9 79.5- 3.0 3.0---- 0.0------------
1994-07-29 28.0 36.4 19.7 18.0 52.3- 2.3 3.0---- 0.0------------
1994-07-28 25.5 34.0 13.1 9.8 58.3- 0.3 2.0---- 0.0------------
1994-07-27 25.8 32.2 18.1 14.5 63.5- 3.7 2.3---- 0.0------------
1994-07-26 28.6 35.3 19.7 14.7 41.3- 3.0 3.3---- 0.0------------
1994-07-25 27.4 34.1 18.2 8.6 46.8- 2.3 3.3---- 0.0------------
1994-07-24 25.7 32.3 13.7 9.2 54.0- 2.0 2.7---- 0.0------------
1994-07-23 25.0 31.7 14.7 11.5 52.0- 3.7 1.0---- 0.0------------
1994-07-22 24.3 31.0 14.3 10.4 49.0- 3.0 4.0---- 0.0------------
1994-07-21 21.1 29.0 8.3 3.8 58.5- 0.3 2.3---- 0.0------------
1994-07-20 19.8 26.4 9.7 6.3 64.8- 2.3 3.0---- 0.0------------
1994-07-19 19.3 23.8 10.3 7.3 59.8- 3.7 3.3---- 0.0------------
1994-07-18 17.5 23.7 7.3 3.7 70.3- 3.0 2.0---- 0.0------------
1994-07-17 19.6 22.6 15.3 13.9 72.8- 4.3 1.7---- 0.0------------
1994-07-16 20.9 26.3 14.1 11.9 72.8- 4.0 2.3---- 0.0------------
1994-07-15 23.8 33.0 17.2 12.8 77.8- 5.0 3.7---- 13.6------------
1994-07-14 26.8 33.7 14.2 9.0 47.3- 2.0 3.3---- 0.0------------
1994-07-13 26.8 33.4 19.3 9.9 47.3- 3.3 3.7---- 0.0------------
1994-07-12 24.0 32.5 12.7 6.3 53.3- 2.7 3.3---- 0.0------------
1994-07-11 20.6 29.1 6.4 0.9 61.5- 1.0 1.7---- 0.0------------
1994-07-10 19.1 24.2 11.2 6.2 72.0- 1.0 3.0---- 0.0------------
1994-07-09 18.8 23.8 11.7 7.0 73.3- 2.7 3.3---- 0.0------------
1994-07-08 17.9 22.8 12.9 12.6 78.5- 7.0 3.3---- 0.0------------
1994-07-07 15.8 25.8 4.2 -3.2 71.5- 4.7 3.0---- 0.6------------
1994-07-06 18.5 23.1 13.8 13.5 65.3- 3.3 2.3---- 0.0------------
1994-07-05 19.0 25.0 12.9 9.8 61.8- 5.7 3.3---- 0.0------------
1994-07-04 23.0 30.1 14.0 7.6 53.3- 2.3 3.3---- 0.0------------
1994-07-03 22.1 27.9 11.0 6.5 47.5- 2.7 4.0---- 0.0------------
1994-07-02 17.4 25.5 4.0 0.1 61.0- 1.0 3.0---- 0.0------------
1994-07-01 15.9 20.5 8.3 2.9 78.0- 5.3 3.0---- 0.0------------
1994-06-30 18.2 21.0 13.9 13.7 70.0- 4.3 3.7---- 0.0------------
1994-06-29 23.7 34.0 15.2 11.5 73.8- 6.3 5.0---- 10.7------------
1994-06-28 20.7 28.8 10.2 6.8 67.3- 0.3 3.0---- 0.0------------
1994-06-27 20.4 26.5 12.7 9.2 74.8- 5.3 3.3---- 0.0------------
1994-06-26 22.2 30.1 12.3 12.3 61.8- 2.3 4.0---- 0.0------------
1994-06-25 16.7 25.9 2.9 1.0 58.8- 1.3 5.0---- 0.0------------
1994-06-24 14.2 18.3 6.7 4.0 67.3- 3.3 4.3---- 0.0------------
1994-06-23 14.5 18.9 9.5 8.7 62.3- 4.7 7.3---- 0.0------------
1994-06-22 18.9 21.9 13.7 13.9 74.3- 5.7 6.7---- 0.0------------
1994-06-21 15.3 21.6 4.0 3.4 75.0- 5.0 2.7---- 2.2------------
1994-06-20 14.6 17.5 10.4 10.0 64.5- 6.7 4.7---- 0.0------------
1994-06-19 15.0 18.2 10.4 11.2 85.5- 6.7 4.7---- 0.0------------
1994-06-18 11.3 16.0 2.1 -2.5 80.5- 7.7 3.3---- 4.7------------
1994-06-17 10.5 14.7 3.9 -1.4 65.8- 5.3 5.3---- 0.0------------
1994-06-16 11.2 14.5 7.8 7.2 79.3- 6.3 5.0---- 1.1------------
496.0 ms

 

Źródłem pochodzenia danych jest Instytut Meteorologii i Gospodarki Wodnej – Państwowy Instytut Badawczy. Dane Instytutu Meteorologii i Gospodarki Wodnej – Państwowego Instytutu Badawczego zostały przetworzone.

Dane źródłowe można odnaleźć na stronie https://dane.imgw.pl